.
WxDataArchive / Data Records for 2008-04-22
2008-04-21 April 2008 2008-04-23

Data Records for Tuesday, 22 April 2008

Time	Temp	Chill	HIndex	Humid	Dewpt	 Wind 	HiWind	WindDir	Rain 	Barom 
-----	----	-----	------	-----	-----	------	------	-------	-----	----- 
00:00	55.4	55.4	55.4	89	52.2	0	1	90	0.00	30.022 
00:05	55.6	55.6	55.6	89	52.4	0	1	90	0.00	30.021 
00:10	55.7	55.7	55.7	89	52.5	0	2	90	0.00	30.018 
00:15	55.7	55.7	55.7	88	52.2	0	0	---	0.00	30.020 
00:20	55.6	55.6	55.6	88	52.1	0	0	---	0.00	30.018 
00:25	55.4	55.4	55.4	88	51.9	0	1	90	0.00	30.018 
00:30	55.3	55.3	55.3	89	52.1	0	1	90	0.00	30.020 
00:35	55.3	55.3	55.3	89	52.1	0	1	90	0.00	30.021 
00:40	55.4	55.4	55.4	89	52.2	0	2	90	0.00	30.021 
00:45	55.4	55.4	55.4	88	51.9	0	1	90	0.00	30.021 
00:50	55.3	55.3	55.3	88	51.8	0	1	90	0.00	30.020 
00:55	55.3	55.3	55.3	88	51.8	0	1	90	0.00	30.018 
01:00	55.1	55.1	55.1	88	51.6	0	1	90	0.00	30.018 
01:05	55.0	55.0	55.0	88	51.5	0	1	90	0.00	30.018 
01:10	54.7	54.7	54.7	88	51.2	0	1	90	0.00	30.016 
01:15	54.5	54.5	54.5	88	51.0	0	1	90	0.00	30.016 
01:20	54.4	54.4	54.4	89	51.2	0	1	90	0.00	30.015 
01:25	54.2	54.2	54.2	89	51.0	0	1	90	0.00	30.015 
01:30	54.2	54.2	54.2	90	51.3	0	1	90	0.00	30.015 
01:35	54.1	54.1	54.1	90	51.2	0	1	90	0.00	30.014 
01:40	54.2	54.2	54.2	90	51.3	0	1	90	0.00	30.013 
01:45	54.2	54.2	54.2	90	51.3	0	2	90	0.00	30.011 
01:50	54.1	54.1	54.1	90	51.2	0	1	90	0.00	30.011 
01:55	53.9	53.9	53.9	90	51.0	0	1	90	0.00	30.013 
02:00	53.6	53.6	53.6	90	50.7	0	0	---	0.00	30.012 
02:05	53.3	53.3	53.3	90	50.4	0	0	---	0.00	30.012 
02:10	53.1	53.1	53.1	90	50.2	0	0	---	0.00	30.010 
02:15	52.8	52.8	52.8	90	49.9	0	0	---	0.00	30.008 
02:20	52.5	52.5	52.5	90	49.7	0	0	---	0.00	30.007 
02:25	52.3	52.3	52.3	91	49.8	0	0	---	0.00	30.005 
02:30	52.0	52.0	52.0	91	49.5	0	0	---	0.00	30.004 
02:35	51.9	51.9	51.9	91	49.4	0	0	---	0.00	30.002 
02:40	51.7	51.7	51.7	92	49.5	0	0	---	0.00	30.002 
02:45	51.6	51.6	51.6	92	49.4	0	0	---	0.00	30.002 
02:50	51.4	51.4	51.4	92	49.2	0	0	---	0.00	30.004 
02:55	51.4	51.4	51.4	93	49.4	0	0	---	0.00	30.003 
03:00	51.3	51.3	51.3	93	49.3	0	0	---	0.00	30.003 
03:05	51.3	51.3	51.3	93	49.3	0	0	---	0.00	30.001 
03:10	51.1	51.1	51.1	93	49.1	0	0	---	0.00	30.002 
03:15	51.0	51.0	51.0	93	49.0	0	0	---	0.00	30.002 
03:20	51.0	51.0	51.0	93	49.0	0	0	---	0.00	30.002 
03:25	50.8	50.8	50.8	94	49.1	0	0	---	0.00	30.004 
03:30	50.8	50.8	50.8	94	49.1	0	0	---	0.00	30.005 
03:35	50.5	50.5	50.5	94	48.8	0	0	---	0.00	30.004 
03:40	50.4	50.4	50.4	94	48.7	0	0	---	0.00	30.004 
03:45	50.1	50.1	50.1	94	48.4	0	0	---	0.00	30.003 
03:50	49.9	49.9	49.9	94	48.2	0	0	---	0.00	30.004 
03:55	49.8	49.8	49.8	94	48.1	0	0	---	0.00	30.004 
04:00	49.8	49.8	49.8	94	48.1	0	0	---	0.00	30.004 
04:05	49.6	49.6	49.6	94	47.9	0	0	---	0.00	30.006 
04:10	49.5	49.5	49.5	94	47.8	0	0	---	0.00	30.007 
04:15	49.4	49.4	49.4	94	47.7	0	0	---	0.00	30.008 
04:20	49.4	49.4	49.4	95	48.0	0	0	---	0.00	30.008 
04:25	49.2	49.2	49.2	95	47.8	0	0	---	0.00	30.009 
04:30	49.1	49.1	49.1	95	47.7	0	0	---	0.00	30.008 
04:35	48.9	48.9	48.9	95	47.5	0	0	---	0.00	30.010 
04:40	48.8	48.8	48.8	95	47.4	0	0	---	0.00	30.013 
04:45	48.6	48.6	48.6	95	47.2	0	0	---	0.00	30.014 
04:50	48.3	48.3	48.3	95	46.9	0	0	---	0.00	30.016 
04:55	48.3	48.3	48.3	95	46.9	0	0	---	0.00	30.015 
05:00	48.5	48.5	48.5	95	47.1	0	0	---	0.00	30.012 
05:05	48.5	48.5	48.5	95	47.1	0	0	---	0.00	30.011 
05:10	48.5	48.5	48.5	95	47.1	0	0	---	0.00	30.011 
05:15	48.5	48.5	48.5	95	47.1	0	0	---	0.00	30.011 
05:20	48.6	48.6	48.6	95	47.2	0	0	---	0.00	30.009 
05:25	48.5	48.5	48.5	95	47.1	0	0	---	0.00	30.007 
05:30	48.3	48.3	48.3	95	46.9	0	0	---	0.00	30.007 
05:35	48.3	48.3	48.3	96	47.2	0	0	---	0.00	30.008 
05:40	48.2	48.2	48.2	95	46.8	0	0	---	0.00	30.010 
05:45	48.0	48.0	48.0	95	46.6	0	0	---	0.00	30.014 
05:50	47.9	47.9	47.9	96	46.8	0	0	---	0.00	30.012 
05:55	47.9	47.9	47.9	96	46.8	0	0	---	0.00	30.011 
06:00	47.9	47.9	47.9	96	46.8	0	0	---	0.00	30.015 
06:05	47.9	47.9	47.9	96	46.8	0	0	---	0.00	30.019 
06:10	47.9	47.9	47.9	96	46.8	0	0	---	0.00	30.020 
06:15	48.0	48.0	48.0	96	46.9	0	0	---	0.00	30.019 
06:20	48.2	48.2	48.2	96	47.1	0	0	---	0.00	30.018 
06:25	48.3	48.3	48.3	96	47.2	0	0	---	0.00	30.017 
06:30	48.6	48.6	48.6	96	47.5	0	0	---	0.00	30.017 
06:35	49.4	49.4	49.4	96	48.3	0	0	---	0.00	30.016 
06:40	50.1	50.1	50.1	96	49.0	0	1	90	0.00	30.014 
06:45	50.7	50.7	50.7	96	49.6	0	0	---	0.00	30.014 
06:50	51.1	51.1	51.1	96	50.0	0	1	90	0.00	30.013 
06:55	51.6	51.6	51.6	96	50.5	0	2	90	0.00	30.012 
07:00	52.2	52.2	52.2	94	50.5	1	2	90	0.00	30.010 
07:05	52.8	52.8	52.8	93	50.8	1	3	90	0.00	30.013 
07:10	53.3	53.3	53.3	91	50.7	1	2	90	0.00	30.011 
07:15	54.1	54.1	54.1	88	50.6	0	2	90	0.00	30.011 
07:20	55.0	55.0	55.0	86	50.9	0	2	90	0.00	30.012 
07:25	55.7	55.7	55.7	84	50.9	1	2	90	0.00	30.015 
07:30	56.5	56.5	56.5	81	50.7	1	3	90	0.00	30.016 
07:35	57.2	57.2	57.2	80	51.1	1	2	90	0.00	30.015 
07:40	57.6	57.6	57.6	77	50.4	1	4	90	0.00	30.014 
07:45	58.1	58.1	58.1	77	50.9	1	4	112	0.00	30.017 
07:50	58.7	58.7	58.7	75	50.8	1	3	112	0.00	30.020 
07:55	59.2	59.2	59.2	75	51.3	1	3	112	0.00	30.022 
08:00	59.8	59.8	59.8	74	51.5	1	3	112	0.00	30.021 
08:05	60.1	60.1	60.1	73	51.4	1	4	112	0.00	30.027 
08:10	60.5	60.5	60.5	73	51.8	1	3	112	0.00	30.030 
08:15	61.3	61.3	61.3	72	52.2	1	2	112	0.00	30.029 
08:20	61.8	61.8	61.8	70	51.9	2	5	112	0.00	30.030 
08:25	62.3	62.3	62.3	69	52.0	2	5	90	0.00	30.030 
08:30	62.7	62.7	62.7	67	51.6	1	4	90	0.00	30.028 
08:35	63.2	63.2	63.2	66	51.6	2	5	90	0.00	30.026 
08:40	63.7	63.7	63.7	65	51.7	1	4	90	0.00	30.025 
08:45	64.0	64.0	64.0	67	52.8	1	3	112	0.00	30.027 
08:50	64.3	64.3	64.3	63	51.4	1	5	90	0.00	30.026 
08:55	64.7	64.7	64.7	64	52.2	1	3	292	0.00	30.022 
09:00	65.2	65.2	65.2	62	51.8	1	4	68	0.00	30.021 
09:05	65.5	65.5	65.5	61	51.7	1	5	90	0.00	30.024 
09:10	66.1	66.1	66.1	60	51.8	1	4	90	0.00	30.022 
09:15	66.4	66.4	66.4	59	51.6	1	3	112	0.00	30.024 
09:20	66.3	66.3	66.3	59	51.5	2	5	270	0.00	30.026 
09:25	66.4	66.4	66.4	61	52.5	1	5	270	0.00	30.025 
09:30	66.8	66.8	66.8	60	52.5	2	5	90	0.00	30.024 
09:35	67.1	67.1	67.1	58	51.8	1	4	112	0.00	30.025 
09:40	67.8	67.8	67.8	57	52.0	1	3	112	0.00	30.016 
09:45	68.3	68.3	68.3	58	52.9	1	3	90	0.00	30.011 
09:50	68.4	68.4	68.4	57	52.6	1	3	90	0.00	30.011 
09:55	68.4	68.4	68.4	57	52.6	1	5	68	0.00	30.010 
10:00	68.4	68.4	68.4	58	53.0	1	4	270	0.00	30.009 
10:05	68.8	68.8	68.8	54	51.5	2	5	90	0.00	30.008 
10:10	69.4	69.4	69.4	58	54.0	1	3	112	0.00	30.008 
10:15	70.1	70.1	70.1	55	53.2	1	5	90	0.00	30.007 
10:20	70.3	70.3	70.3	53	52.3	2	5	90	0.00	30.006 
10:25	70.3	70.3	70.3	57	54.3	2	6	90	0.00	30.002 
10:30	70.6	70.6	70.6	54	53.1	1	4	112	0.00	30.001 
10:35	71.1	71.1	71.1	52	52.6	2	4	112	0.00	30.000 
10:40	71.3	71.3	71.3	52	52.8	1	3	0	0.00	30.005 
10:45	71.8	71.8	71.8	52	53.2	1	4	68	0.00	30.007 
10:50	71.6	71.6	71.6	52	53.0	1	5	112	0.00	30.009 
10:55	71.8	71.8	71.8	52	53.2	2	5	90	0.00	30.011 
11:00	72.1	72.1	72.1	52	53.5	1	4	135	0.00	30.011 
11:05	72.5	72.5	72.5	52	53.9	1	3	68	0.00	30.012 
11:10	72.8	72.8	72.8	55	55.7	1	3	112	0.00	30.012 
11:15	73.2	73.2	73.2	55	56.0	1	4	112	0.00	30.014 
11:20	73.0	73.0	73.0	52	54.3	1	4	270	0.00	30.014 
11:25	73.3	73.3	73.3	50	53.5	2	4	112	0.00	30.013 
11:30	73.5	73.5	73.5	49	53.2	2	7	112	0.00	30.013 
11:35	73.7	73.7	73.7	49	53.3	1	5	270	0.00	30.012 
11:40	74.0	74.0	74.0	50	54.2	1	3	202	0.00	30.012 
11:45	74.0	74.0	74.0	48	53.0	1	4	248	0.00	30.009 
11:50	74.2	74.2	74.2	47	52.7	2	5	90	0.00	30.008 
11:55	74.2	74.2	74.2	50	54.3	2	5	112	0.00	30.005 
12:00	74.2	74.2	74.2	45	51.5	2	6	112	0.00	30.002 
12:05	74.7	74.7	74.7	52	55.9	1	3	135	0.00	29.999 
12:10	74.4	74.4	74.4	47	52.8	2	6	112	0.00	29.996 
12:15	74.4	74.4	74.4	46	52.3	3	5	112	0.00	29.996 
12:20	74.4	74.4	74.4	46	52.3	2	6	90	0.00	29.993 
12:25	74.6	74.6	74.6	46	52.4	3	9	90	0.00	29.989 
12:30	74.6	74.6	74.6	46	52.4	2	5	270	0.00	29.989 
12:35	74.6	74.6	74.6	45	51.8	2	5	248	0.00	29.985 
12:40	74.9	74.9	74.9	42	50.2	3	9	112	0.00	29.985 
12:45	74.9	74.9	74.9	44	51.5	2	5	112	0.00	29.981 
12:50	75.6	75.6	77.8	43	51.5	2	5	90	0.00	29.982 
12:55	75.3	75.3	77.7	43	51.2	1	5	112	0.00	29.987 
13:00	74.7	74.7	74.7	45	51.9	2	4	90	0.00	29.989 
13:05	74.4	74.4	74.4	43	50.4	2	5	112	0.00	29.990 
13:10	74.6	74.6	74.6	47	53.0	2	5	135	0.00	29.988 
13:15	75.3	75.3	77.7	45	52.5	1	5	248	0.00	29.990 
13:20	74.9	74.9	74.9	42	50.2	2	5	248	0.00	29.987 
13:25	74.2	74.2	74.2	41	49.0	3	6	270	0.00	29.989 
13:30	73.5	73.5	73.5	43	49.6	3	5	248	0.00	29.991 
13:35	73.5	73.5	73.5	46	51.4	2	5	112	0.00	29.990 
13:40	73.7	73.7	73.7	45	51.0	3	7	270	0.00	29.990 
13:45	74.0	74.0	74.0	46	51.9	1	4	112	0.00	29.993 
13:50	74.4	74.4	74.4	43	50.4	1	4	112	0.00	29.993 
13:55	74.4	74.4	74.4	43	50.4	1	3	135	0.00	29.993 
14:00	73.9	73.9	73.9	44	50.6	1	3	270	0.00	29.993 
14:05	73.5	73.5	73.5	43	49.6	2	6	68	0.00	29.997 
14:10	73.3	73.3	73.3	45	50.7	1	3	68	0.00	29.997 
14:15	73.5	73.5	73.5	45	50.8	0	2	112	0.00	29.995 
14:20	73.7	73.7	73.7	45	51.0	1	4	112	0.00	29.991 
14:25	73.9	73.9	73.9	44	50.6	0	3	248	0.00	29.990 
14:30	73.9	73.9	73.9	43	50.0	0	2	248	0.00	29.987 
14:35	74.0	74.0	74.0	43	50.1	0	2	248	0.00	29.987 
14:40	73.9	73.9	73.9	43	50.0	1	4	112	0.00	29.985 
14:45	74.0	74.0	74.0	44	50.7	0	2	158	0.00	29.983 
14:50	74.0	74.0	74.0	46	51.9	0	3	158	0.00	29.983 
14:55	73.7	73.7	73.7	42	49.2	1	3	248	0.00	29.983 
15:00	73.3	73.3	73.3	44	50.1	1	2	68	0.00	29.981 
15:05	73.2	73.2	73.2	46	51.2	0	2	68	0.00	29.981 
15:10	73.2	73.2	73.2	43	49.3	1	4	112	0.00	29.977 
15:15	73.2	73.2	73.2	45	50.6	0	2	248	0.00	29.975 
15:20	73.3	73.3	73.3	43	49.4	1	2	248	0.00	29.972 
15:25	73.7	73.7	73.7	44	50.4	1	3	248	0.00	29.969 
15:30	74.7	74.7	74.7	42	50.1	1	3	135	0.00	29.967 
15:35	75.3	75.3	77.7	43	51.2	1	3	112	0.00	29.967 
15:40	75.6	75.6	77.6	39	48.9	2	4	90	0.00	29.964 
15:45	75.8	75.8	77.7	40	49.7	1	4	135	0.00	29.963 
15:50	75.6	75.6	77.6	39	48.9	1	4	248	0.00	29.964 
15:55	75.3	75.3	77.6	41	50.0	0	4	248	0.00	29.967 
16:00	74.9	74.9	74.9	40	48.9	1	3	248	0.00	29.966 
16:05	74.6	74.6	74.6	39	48.0	2	5	248	0.00	29.968 
16:10	74.4	74.4	74.4	41	49.1	1	4	248	0.00	29.969 
16:15	74.4	74.4	74.4	40	48.5	0	4	225	0.00	29.968 
16:20	74.4	74.4	74.4	39	47.8	1	2	225	0.00	29.969 
16:25	74.4	74.4	74.4	41	49.1	0	2	225	0.00	29.966 
16:30	74.6	74.6	74.6	40	48.7	1	4	270	0.00	29.966 
16:35	74.9	74.9	74.9	40	48.9	0	4	292	0.00	29.966 
16:40	75.3	75.3	77.5	38	47.9	2	6	248	0.00	29.966 
16:45	75.4	75.4	77.5	38	48.0	2	5	248	0.00	29.965 
16:50	75.3	75.3	77.5	38	47.9	1	5	248	0.00	29.966 
16:55	74.7	74.7	74.7	40	48.8	1	4	248	0.00	29.965 
17:00	74.4	74.4	74.4	41	49.1	1	4	90	0.00	29.966 
17:05	74.2	74.2	74.2	41	49.0	1	3	68	0.00	29.967 
17:10	74.4	74.4	74.4	42	49.8	1	4	248	0.00	29.967 
17:15	74.7	74.7	74.7	39	48.1	1	6	248	0.00	29.968 
17:20	74.6	74.6	74.6	41	49.3	0	2	270	0.00	29.969 
17:25	74.0	74.0	74.0	41	48.8	0	2	270	0.00	29.968 
17:30	73.9	73.9	73.9	40	48.0	1	4	248	0.00	29.970 
17:35	73.7	73.7	73.7	41	48.5	0	2	248	0.00	29.970 
17:40	73.7	73.7	73.7	41	48.5	1	3	248	0.00	29.969 
17:45	73.5	73.5	73.5	43	49.6	1	3	112	0.00	29.969 
17:50	73.2	73.2	73.2	41	48.1	1	6	112	0.00	29.970 
17:55	73.0	73.0	73.0	42	48.5	1	4	248	0.00	29.971 
18:00	73.0	73.0	73.0	42	48.5	1	5	248	0.00	29.972 
18:05	72.7	72.7	72.7	43	48.9	0	1	248	0.00	29.968 
18:10	72.7	72.7	72.7	43	48.9	0	1	248	0.00	29.969 
18:15	72.5	72.5	72.5	44	49.3	0	1	248	0.00	29.968 
18:20	72.1	72.1	72.1	44	49.0	0	1	248	0.00	29.967 
18:25	72.0	72.0	72.0	45	49.5	0	1	248	0.00	29.965 
18:30	71.6	71.6	71.6	44	48.5	0	0	---	0.00	29.966 
18:35	71.3	71.3	71.3	46	49.4	0	1	248	0.00	29.967 
18:40	71.1	71.1	71.1	46	49.3	0	0	---	0.00	29.967 
18:45	70.9	70.9	70.9	46	49.1	0	0	---	0.00	29.965 
18:50	70.8	70.8	70.8	47	49.6	0	1	248	0.00	29.965 
18:55	70.8	70.8	70.8	47	49.6	0	1	248	0.00	29.967 
19:00	70.4	70.4	70.4	46	48.6	0	1	248	0.00	29.966 
19:05	70.4	70.4	70.4	46	48.6	0	1	248	0.00	29.960 
19:10	70.3	70.3	70.3	46	48.5	0	0	---	0.00	29.962 
19:15	69.9	69.9	69.9	46	48.2	0	1	248	0.00	29.962 
19:20	69.8	69.8	69.8	47	48.6	0	0	---	0.00	29.962 
19:25	69.4	69.4	69.4	48	48.8	0	0	---	0.00	29.964 
19:30	68.9	68.9	68.9	49	48.9	0	0	---	0.00	29.974 
19:35	68.4	68.4	68.4	49	48.5	0	0	---	0.00	29.977 
19:40	67.9	67.9	67.9	51	49.1	0	0	---	0.00	29.978 
19:45	67.3	67.3	67.3	51	48.5	0	0	---	0.00	29.982 
19:50	66.8	66.8	66.8	52	48.6	0	0	---	0.00	29.982 
19:55	66.1	66.1	66.1	54	49.0	0	0	---	0.00	29.983 
20:00	65.5	65.5	65.5	55	48.9	0	0	---	0.00	29.986 
20:05	65.0	65.0	65.0	57	49.4	0	0	---	0.00	29.985 
20:10	64.5	64.5	64.5	58	49.4	0	0	---	0.00	29.985 
20:15	63.9	63.9	63.9	58	48.8	0	0	---	0.00	29.990 
20:20	63.4	63.4	63.4	60	49.3	0	0	---	0.00	29.991 
20:25	62.7	62.7	62.7	61	49.1	0	0	---	0.00	29.994 
20:30	62.3	62.3	62.3	62	49.1	0	0	---	0.00	29.997 
20:35	61.8	61.8	61.8	62	48.6	0	0	---	0.00	29.998 
20:40	61.5	61.5	61.5	63	48.8	0	0	---	0.00	29.999 
20:45	61.2	61.2	61.2	64	48.9	0	0	---	0.00	29.998 
20:50	60.9	60.9	60.9	67	49.9	0	1	248	0.00	30.000 
20:55	60.7	60.7	60.7	67	49.7	0	0	---	0.00	30.000 
21:00	60.5	60.5	60.5	68	49.9	0	0	---	0.00	29.999 
21:05	60.2	60.2	60.2	68	49.6	0	0	---	0.00	29.997 
21:10	59.9	59.9	59.9	69	49.7	0	0	---	0.00	29.998 
21:15	59.6	59.6	59.6	70	49.8	0	0	---	0.00	30.000 
21:20	59.3	59.3	59.3	70	49.5	0	0	---	0.00	30.004 
21:25	59.0	59.0	59.0	71	49.6	0	0	---	0.00	30.003 
21:30	58.7	58.7	58.7	72	49.7	0	0	---	0.00	30.002 
21:35	58.4	58.4	58.4	73	49.8	0	0	---	0.00	30.003 
21:40	58.3	58.3	58.3	73	49.7	0	0	---	0.00	30.003 
21:45	58.3	58.3	58.3	74	50.0	0	0	---	0.00	30.001 
21:50	58.3	58.3	58.3	74	50.0	0	0	---	0.00	30.002 
21:55	58.1	58.1	58.1	74	49.9	0	0	---	0.00	30.000 
22:00	58.0	58.0	58.0	75	50.1	0	0	---	0.00	30.000 
22:05	57.6	57.6	57.6	75	49.7	0	0	---	0.00	29.996 
22:10	57.5	57.5	57.5	76	50.0	0	0	---	0.00	29.996 
22:15	57.2	57.2	57.2	76	49.7	0	0	---	0.00	29.997 
22:20	56.9	56.9	56.9	77	49.8	0	0	---	0.00	29.997 
22:25	56.7	56.7	56.7	77	49.6	0	0	---	0.00	29.996 
22:30	56.5	56.5	56.5	78	49.7	0	0	---	0.00	29.996 
22:35	56.3	56.3	56.3	79	49.9	0	0	---	0.00	29.997 
22:40	56.2	56.2	56.2	79	49.8	0	0	---	0.00	29.997 
22:45	56.0	56.0	56.0	80	49.9	0	0	---	0.00	29.998 
22:50	55.9	55.9	55.9	81	50.2	0	0	---	0.00	29.999 
22:55	55.7	55.7	55.7	81	50.0	0	0	---	0.00	30.003 
23:00	55.6	55.6	55.6	81	49.9	0	0	---	0.00	30.006 
23:05	55.4	55.4	55.4	81	49.7	0	0	---	0.00	30.008 
23:10	55.1	55.1	55.1	82	49.7	0	0	---	0.00	30.007 
23:15	55.0	55.0	55.0	82	49.6	0	0	---	0.00	30.008 
23:20	54.8	54.8	54.8	83	49.7	0	0	---	0.00	30.008 
23:25	54.7	54.7	54.7	84	50.0	0	0	---	0.00	30.009 
23:30	54.5	54.5	54.5	84	49.8	0	0	---	0.00	30.009 
23:35	54.4	54.4	54.4	84	49.7	0	0	---	0.00	30.010 
23:40	54.4	54.4	54.4	85	50.0	0	0	---	0.00	30.011 
23:45	54.2	54.2	54.2	86	50.1	0	0	---	0.00	30.012 
23:50	54.1	54.1	54.1	86	50.0	0	0	---	0.00	30.013 
23:55	54.1	54.1	54.1	87	50.3	0	0	---	0.00	30.013 

CoCoRaHS
IN-AL-39
A2 Web Hosting
Creative Commons License
GoDaddy
Look for:

loaded 2017-10-18 07:39:47 • last modified 2010-11-18 10:43:29
Privacy PolicyDisclaimer
• wx.awcolley.com is powered by PmWiki v.2002016 •
• all content (unless otherwise noted) © 2017 A W Colley